sensor_id;sensor_type;location;lat;lon;timestamp;P1;durP1;ratioP1;P2;durP2;ratioP2
9294;SDS011;4686;44.496;11.324;2024-03-17T00:02:05;9.93;;;9.03;;
9294;SDS011;4686;44.496;11.324;2024-03-17T00:04:32;11.80;;;9.70;;
9294;SDS011;4686;44.496;11.324;2024-03-17T00:07:00;10.87;;;9.90;;
9294;SDS011;4686;44.496;11.324;2024-03-17T00:09:28;10.93;;;9.90;;
9294;SDS011;4686;44.496;11.324;2024-03-17T00:11:55;9.97;;;9.07;;
9294;SDS011;4686;44.496;11.324;2024-03-17T00:14:24;9.70;;;8.90;;
9294;SDS011;4686;44.496;11.324;2024-03-17T00:16:52;10.83;;;9.83;;
9294;SDS011;4686;44.496;11.324;2024-03-17T00:19:19;10.80;;;9.80;;
9294;SDS011;4686;44.496;11.324;2024-03-17T00:21:47;10.57;;;9.33;;
9294;SDS011;4686;44.496;11.324;2024-03-17T00:24:17;10.20;;;9.10;;
9294;SDS011;4686;44.496;11.324;2024-03-17T00:26:43;14.93;;;9.90;;
9294;SDS011;4686;44.496;11.324;2024-03-17T00:29:11;11.67;;;9.00;;
9294;SDS011;4686;44.496;11.324;2024-03-17T00:31:37;10.20;;;9.30;;
9294;SDS011;4686;44.496;11.324;2024-03-17T00:34:05;11.50;;;10.40;;
9294;SDS011;4686;44.496;11.324;2024-03-17T00:36:31;10.20;;;9.13;;
9294;SDS011;4686;44.496;11.324;2024-03-17T00:38:58;10.27;;;9.37;;
9294;SDS011;4686;44.496;11.324;2024-03-17T00:41:26;10.80;;;9.23;;
9294;SDS011;4686;44.496;11.324;2024-03-17T00:43:54;9.60;;;8.70;;
9294;SDS011;4686;44.496;11.324;2024-03-17T00:46:21;10.60;;;8.43;;
9294;SDS011;4686;44.496;11.324;2024-03-17T00:48:49;10.60;;;9.50;;
9294;SDS011;4686;44.496;11.324;2024-03-17T00:51:15;10.50;;;9.57;;
9294;SDS011;4686;44.496;11.324;2024-03-17T00:53:43;9.90;;;9.10;;
9294;SDS011;4686;44.496;11.324;2024-03-17T00:56:10;10.20;;;9.30;;
9294;SDS011;4686;44.496;11.324;2024-03-17T00:58:39;11.30;;;10.00;;
9294;SDS011;4686;44.496;11.324;2024-03-17T01:01:05;9.17;;;8.47;;
9294;SDS011;4686;44.496;11.324;2024-03-17T01:03:33;10.13;;;9.13;;
9294;SDS011;4686;44.496;11.324;2024-03-17T01:05:59;13.13;;;9.10;;
9294;SDS011;4686;44.496;11.324;2024-03-17T01:08:28;11.87;;;8.93;;
9294;SDS011;4686;44.496;11.324;2024-03-17T01:10:54;10.40;;;9.40;;
9294;SDS011;4686;44.496;11.324;2024-03-17T01:13:23;9.70;;;8.67;;
9294;SDS011;4686;44.496;11.324;2024-03-17T01:15:52;11.70;;;9.63;;
9294;SDS011;4686;44.496;11.324;2024-03-17T01:18:19;9.47;;;8.53;;
9294;SDS011;4686;44.496;11.324;2024-03-17T01:20:46;8.73;;;7.97;;
9294;SDS011;4686;44.496;11.324;2024-03-17T01:23:13;11.97;;;8.87;;
9294;SDS011;4686;44.496;11.324;2024-03-17T01:25:40;10.30;;;9.40;;
9294;SDS011;4686;44.496;11.324;2024-03-17T01:28:07;10.10;;;9.20;;
9294;SDS011;4686;44.496;11.324;2024-03-17T01:30:34;10.77;;;9.63;;
9294;SDS011;4686;44.496;11.324;2024-03-17T01:33:02;9.90;;;9.00;;
9294;SDS011;4686;44.496;11.324;2024-03-17T01:35:30;10.20;;;9.30;;
9294;SDS011;4686;44.496;11.324;2024-03-17T01:37:59;9.50;;;8.80;;
9294;SDS011;4686;44.496;11.324;2024-03-17T01:40:25;9.53;;;8.50;;
9294;SDS011;4686;44.496;11.324;2024-03-17T01:42:52;10.57;;;9.67;;
9294;SDS011;4686;44.496;11.324;2024-03-17T01:45:25;11.07;;;10.07;;
9294;SDS011;4686;44.496;11.324;2024-03-17T01:47:54;10.67;;;9.63;;
9294;SDS011;4686;44.496;11.324;2024-03-17T01:50:24;9.20;;;8.40;;
9294;SDS011;4686;44.496;11.324;2024-03-17T01:52:53;12.17;;;10.70;;
9294;SDS011;4686;44.496;11.324;2024-03-17T01:55:20;11.17;;;10.03;;
9294;SDS011;4686;44.496;11.324;2024-03-17T01:57:47;10.23;;;9.23;;
9294;SDS011;4686;44.496;11.324;2024-03-17T02:00:14;10.57;;;9.40;;
9294;SDS011;4686;44.496;11.324;2024-03-17T02:02:41;11.60;;;8.80;;
9294;SDS011;4686;44.496;11.324;2024-03-17T02:05:08;11.20;;;9.33;;
9294;SDS011;4686;44.496;11.324;2024-03-17T02:07:36;10.33;;;9.27;;
9294;SDS011;4686;44.496;11.324;2024-03-17T02:10:04;9.83;;;9.00;;
9294;SDS011;4686;44.496;11.324;2024-03-17T02:12:30;11.03;;;9.13;;
9294;SDS011;4686;44.496;11.324;2024-03-17T02:14:58;10.20;;;9.20;;
9294;SDS011;4686;44.496;11.324;2024-03-17T02:17:24;10.17;;;9.23;;
9294;SDS011;4686;44.496;11.324;2024-03-17T02:19:52;10.20;;;9.30;;
9294;SDS011;4686;44.496;11.324;2024-03-17T02:22:20;9.30;;;8.50;;
9294;SDS011;4686;44.496;11.324;2024-03-17T02:24:48;9.87;;;9.03;;
9294;SDS011;4686;44.496;11.324;2024-03-17T02:27:14;10.30;;;9.40;;
9294;SDS011;4686;44.496;11.324;2024-03-17T02:29:42;13.20;;;9.03;;
9294;SDS011;4686;44.496;11.324;2024-03-17T02:32:09;10.30;;;9.30;;
9294;SDS011;4686;44.496;11.324;2024-03-17T02:34:37;12.07;;;9.83;;
9294;SDS011;4686;44.496;11.324;2024-03-17T02:37:04;9.87;;;8.97;;
9294;SDS011;4686;44.496;11.324;2024-03-17T02:39:33;10.27;;;9.40;;
9294;SDS011;4686;44.496;11.324;2024-03-17T02:42:00;10.27;;;9.27;;
9294;SDS011;4686;44.496;11.324;2024-03-17T02:44:28;9.87;;;8.93;;
9294;SDS011;4686;44.496;11.324;2024-03-17T02:46:55;10.80;;;9.70;;
9294;SDS011;4686;44.496;11.324;2024-03-17T02:49:23;11.20;;;8.90;;
9294;SDS011;4686;44.496;11.324;2024-03-17T02:51:52;9.70;;;8.90;;
9294;SDS011;4686;44.496;11.324;2024-03-17T02:54:19;9.90;;;8.80;;
9294;SDS011;4686;44.496;11.324;2024-03-17T02:56:48;10.60;;;8.97;;
9294;SDS011;4686;44.496;11.324;2024-03-17T02:59:16;9.93;;;9.10;;
9294;SDS011;4686;44.496;11.324;2024-03-17T03:01:43;10.87;;;9.87;;
9294;SDS011;4686;44.496;11.324;2024-03-17T03:04:11;10.73;;;9.73;;
9294;SDS011;4686;44.496;11.324;2024-03-17T03:06:38;9.80;;;8.90;;
9294;SDS011;4686;44.496;11.324;2024-03-17T03:09:05;9.90;;;9.00;;
9294;SDS011;4686;44.496;11.324;2024-03-17T03:11:39;9.83;;;9.03;;
9294;SDS011;4686;44.496;11.324;2024-03-17T03:14:07;10.17;;;9.27;;
9294;SDS011;4686;44.496;11.324;2024-03-17T03:16:35;10.47;;;9.13;;
9294;SDS011;4686;44.496;11.324;2024-03-17T03:19:02;10.53;;;9.53;;
9294;SDS011;4686;44.496;11.324;2024-03-17T03:21:30;9.53;;;8.73;;
9294;SDS011;4686;44.496;11.324;2024-03-17T03:23:57;12.13;;;9.03;;
9294;SDS011;4686;44.496;11.324;2024-03-17T03:26:24;10.13;;;9.33;;
9294;SDS011;4686;44.496;11.324;2024-03-17T03:28:53;9.30;;;8.40;;
9294;SDS011;4686;44.496;11.324;2024-03-17T03:31:22;9.60;;;8.70;;
9294;SDS011;4686;44.496;11.324;2024-03-17T03:33:50;9.47;;;8.57;;
9294;SDS011;4686;44.496;11.324;2024-03-17T03:36:17;9.57;;;8.73;;
9294;SDS011;4686;44.496;11.324;2024-03-17T03:38:46;9.30;;;8.47;;
9294;SDS011;4686;44.496;11.324;2024-03-17T03:41:13;9.63;;;8.53;;
9294;SDS011;4686;44.496;11.324;2024-03-17T03:43:41;11.83;;;9.83;;
9294;SDS011;4686;44.496;11.324;2024-03-17T03:46:11;9.30;;;8.60;;
9294;SDS011;4686;44.496;11.324;2024-03-17T03:48:39;10.63;;;9.53;;
9294;SDS011;4686;44.496;11.324;2024-03-17T03:51:07;10.77;;;9.80;;
9294;SDS011;4686;44.496;11.324;2024-03-17T03:53:35;12.03;;;10.90;;
9294;SDS011;4686;44.496;11.324;2024-03-17T03:56:04;10.60;;;9.60;;
9294;SDS011;4686;44.496;11.324;2024-03-17T03:58:32;10.13;;;8.93;;
9294;SDS011;4686;44.496;11.324;2024-03-17T04:01:00;10.27;;;9.20;;
9294;SDS011;4686;44.496;11.324;2024-03-17T04:03:27;9.90;;;8.90;;
9294;SDS011;4686;44.496;11.324;2024-03-17T04:06:01;10.77;;;9.00;;
9294;SDS011;4686;44.496;11.324;2024-03-17T04:08:30;9.43;;;8.50;;
9294;SDS011;4686;44.496;11.324;2024-03-17T04:10:57;9.63;;;8.87;;
9294;SDS011;4686;44.496;11.324;2024-03-17T04:13:26;9.80;;;8.80;;
9294;SDS011;4686;44.496;11.324;2024-03-17T04:15:54;9.33;;;8.37;;
9294;SDS011;4686;44.496;11.324;2024-03-17T04:18:22;9.50;;;8.70;;
9294;SDS011;4686;44.496;11.324;2024-03-17T04:20:51;9.63;;;8.73;;
9294;SDS011;4686;44.496;11.324;2024-03-17T04:23:20;9.10;;;8.30;;
9294;SDS011;4686;44.496;11.324;2024-03-17T04:25:47;9.27;;;8.57;;
9294;SDS011;4686;44.496;11.324;2024-03-17T04:28:15;11.10;;;8.93;;
9294;SDS011;4686;44.496;11.324;2024-03-17T04:30:43;9.77;;;8.77;;
9294;SDS011;4686;44.496;11.324;2024-03-17T04:33:10;10.87;;;9.07;;
9294;SDS011;4686;44.496;11.324;2024-03-17T04:35:37;9.43;;;8.73;;
9294;SDS011;4686;44.496;11.324;2024-03-17T04:38:05;10.30;;;8.40;;
9294;SDS011;4686;44.496;11.324;2024-03-17T04:40:33;9.73;;;8.93;;
9294;SDS011;4686;44.496;11.324;2024-03-17T04:43:01;9.80;;;8.90;;
9294;SDS011;4686;44.496;11.324;2024-03-17T04:45:28;12.60;;;8.93;;
9294;SDS011;4686;44.496;11.324;2024-03-17T04:47:55;10.50;;;9.50;;
9294;SDS011;4686;44.496;11.324;2024-03-17T04:50:23;10.33;;;9.57;;
9294;SDS011;4686;44.496;11.324;2024-03-17T04:52:51;9.20;;;8.40;;
9294;SDS011;4686;44.496;11.324;2024-03-17T04:55:19;8.73;;;7.83;;
9294;SDS011;4686;44.496;11.324;2024-03-17T04:57:47;11.77;;;9.70;;
9294;SDS011;4686;44.496;11.324;2024-03-17T05:00:15;11.00;;;9.03;;
9294;SDS011;4686;44.496;11.324;2024-03-17T05:02:43;10.80;;;9.37;;
9294;SDS011;4686;44.496;11.324;2024-03-17T05:05:10;10.30;;;9.40;;
9294;SDS011;4686;44.496;11.324;2024-03-17T05:07:38;11.30;;;10.20;;
9294;SDS011;4686;44.496;11.324;2024-03-17T05:10:05;9.40;;;8.50;;
9294;SDS011;4686;44.496;11.324;2024-03-17T05:12:33;11.00;;;9.90;;
9294;SDS011;4686;44.496;11.324;2024-03-17T05:15:02;10.40;;;9.40;;
9294;SDS011;4686;44.496;11.324;2024-03-17T05:17:31;9.93;;;9.00;;
9294;SDS011;4686;44.496;11.324;2024-03-17T05:19:58;10.60;;;9.00;;
9294;SDS011;4686;44.496;11.324;2024-03-17T05:22:26;10.47;;;9.20;;
9294;SDS011;4686;44.496;11.324;2024-03-17T05:24:53;10.43;;;9.53;;
9294;SDS011;4686;44.496;11.324;2024-03-17T05:27:21;9.83;;;8.93;;
9294;SDS011;4686;44.496;11.324;2024-03-17T05:29:49;9.37;;;8.57;;
9294;SDS011;4686;44.496;11.324;2024-03-17T05:32:17;9.73;;;8.83;;
9294;SDS011;4686;44.496;11.324;2024-03-17T05:34:45;10.03;;;9.00;;
9294;SDS011;4686;44.496;11.324;2024-03-17T05:37:12;11.03;;;8.73;;
9294;SDS011;4686;44.496;11.324;2024-03-17T05:39:40;11.60;;;8.80;;
9294;SDS011;4686;44.496;11.324;2024-03-17T05:42:08;9.90;;;9.00;;
9294;SDS011;4686;44.496;11.324;2024-03-17T05:44:35;8.63;;;7.83;;
9294;SDS011;4686;44.496;11.324;2024-03-17T05:47:15;10.60;;;9.60;;
9294;SDS011;4686;44.496;11.324;2024-03-17T05:49:44;9.97;;;9.00;;
9294;SDS011;4686;44.496;11.324;2024-03-17T05:52:11;9.70;;;9.00;;
9294;SDS011;4686;44.496;11.324;2024-03-17T05:54:39;9.70;;;8.70;;
9294;SDS011;4686;44.496;11.324;2024-03-17T05:57:06;9.63;;;8.77;;
9294;SDS011;4686;44.496;11.324;2024-03-17T05:59:37;9.53;;;8.77;;
9294;SDS011;4686;44.496;11.324;2024-03-17T06:02:04;9.07;;;7.90;;
9294;SDS011;4686;44.496;11.324;2024-03-17T06:04:33;10.63;;;9.70;;
9294;SDS011;4686;44.496;11.324;2024-03-17T06:07:02;9.60;;;8.80;;
9294;SDS011;4686;44.496;11.324;2024-03-17T06:09:29;9.10;;;8.17;;
9294;SDS011;4686;44.496;11.324;2024-03-17T06:11:57;9.67;;;8.80;;
9294;SDS011;4686;44.496;11.324;2024-03-17T06:14:24;10.40;;;9.40;;
9294;SDS011;4686;44.496;11.324;2024-03-17T06:16:51;8.50;;;7.80;;
9294;SDS011;4686;44.496;11.324;2024-03-17T06:19:19;10.33;;;9.30;;
9294;SDS011;4686;44.496;11.324;2024-03-17T06:21:47;8.90;;;8.20;;
9294;SDS011;4686;44.496;11.324;2024-03-17T06:24:17;10.17;;;9.27;;
9294;SDS011;4686;44.496;11.324;2024-03-17T06:26:45;10.60;;;9.50;;
9294;SDS011;4686;44.496;11.324;2024-03-17T06:29:14;14.63;;;8.60;;
9294;SDS011;4686;44.496;11.324;2024-03-17T06:31:41;9.80;;;8.90;;
9294;SDS011;4686;44.496;11.324;2024-03-17T06:34:10;8.50;;;7.80;;
9294;SDS011;4686;44.496;11.324;2024-03-17T06:36:40;9.87;;;8.97;;
9294;SDS011;4686;44.496;11.324;2024-03-17T06:39:08;9.43;;;8.47;;
9294;SDS011;4686;44.496;11.324;2024-03-17T06:41:37;9.60;;;8.70;;
9294;SDS011;4686;44.496;11.324;2024-03-17T06:44:04;9.77;;;8.70;;
9294;SDS011;4686;44.496;11.324;2024-03-17T06:46:31;9.77;;;8.77;;
9294;SDS011;4686;44.496;11.324;2024-03-17T06:48:59;11.83;;;8.93;;
9294;SDS011;4686;44.496;11.324;2024-03-17T06:51:27;8.40;;;7.70;;
9294;SDS011;4686;44.496;11.324;2024-03-17T06:53:54;8.83;;;8.13;;
9294;SDS011;4686;44.496;11.324;2024-03-17T06:56:21;8.80;;;8.10;;
9294;SDS011;4686;44.496;11.324;2024-03-17T06:58:50;9.40;;;8.50;;
9294;SDS011;4686;44.496;11.324;2024-03-17T07:01:18;9.30;;;8.40;;
9294;SDS011;4686;44.496;11.324;2024-03-17T07:03:46;9.57;;;8.77;;
9294;SDS011;4686;44.496;11.324;2024-03-17T07:06:13;8.63;;;7.93;;
9294;SDS011;4686;44.496;11.324;2024-03-17T07:08:40;9.10;;;8.30;;
9294;SDS011;4686;44.496;11.324;2024-03-17T07:11:08;9.20;;;8.27;;
9294;SDS011;4686;44.496;11.324;2024-03-17T07:13:36;9.23;;;8.27;;
9294;SDS011;4686;44.496;11.324;2024-03-17T07:16:08;9.73;;;7.90;;
9294;SDS011;4686;44.496;11.324;2024-03-17T07:18:35;8.83;;;7.93;;
9294;SDS011;4686;44.496;11.324;2024-03-17T07:21:03;9.13;;;8.23;;
9294;SDS011;4686;44.496;11.324;2024-03-17T07:23:31;8.50;;;7.73;;
9294;SDS011;4686;44.496;11.324;2024-03-17T07:25:59;9.23;;;8.43;;
9294;SDS011;4686;44.496;11.324;2024-03-17T07:28:26;8.27;;;7.63;;
9294;SDS011;4686;44.496;11.324;2024-03-17T07:30:54;9.23;;;8.20;;
9294;SDS011;4686;44.496;11.324;2024-03-17T07:33:23;9.67;;;8.00;;
9294;SDS011;4686;44.496;11.324;2024-03-17T07:35:51;13.87;;;8.20;;
9294;SDS011;4686;44.496;11.324;2024-03-17T07:38:20;8.67;;;7.83;;
9294;SDS011;4686;44.496;11.324;2024-03-17T07:40:57;7.80;;;7.10;;
9294;SDS011;4686;44.496;11.324;2024-03-17T07:43:25;7.47;;;6.87;;
9294;SDS011;4686;44.496;11.324;2024-03-17T07:45:59;9.20;;;7.60;;
9294;SDS011;4686;44.496;11.324;2024-03-17T07:48:28;7.97;;;7.27;;
9294;SDS011;4686;44.496;11.324;2024-03-17T07:50:55;8.10;;;7.50;;
9294;SDS011;4686;44.496;11.324;2024-03-17T07:53:23;11.13;;;7.87;;
9294;SDS011;4686;44.496;11.324;2024-03-17T07:55:58;9.60;;;7.70;;
9294;SDS011;4686;44.496;11.324;2024-03-17T07:58:25;12.67;;;7.13;;
9294;SDS011;4686;44.496;11.324;2024-03-17T08:00:56;10.67;;;8.20;;
9294;SDS011;4686;44.496;11.324;2024-03-17T08:03:24;9.33;;;8.43;;
9294;SDS011;4686;44.496;11.324;2024-03-17T08:05:53;10.80;;;7.93;;
9294;SDS011;4686;44.496;11.324;2024-03-17T08:08:21;8.10;;;7.30;;
9294;SDS011;4686;44.496;11.324;2024-03-17T08:10:49;10.13;;;7.80;;
9294;SDS011;4686;44.496;11.324;2024-03-17T08:13:16;8.17;;;7.47;;
9294;SDS011;4686;44.496;11.324;2024-03-17T08:15:44;11.10;;;8.10;;
9294;SDS011;4686;44.496;11.324;2024-03-17T08:18:12;8.60;;;7.80;;
9294;SDS011;4686;44.496;11.324;2024-03-17T08:20:41;8.30;;;7.50;;
9294;SDS011;4686;44.496;11.324;2024-03-17T08:23:10;9.67;;;8.60;;
9294;SDS011;4686;44.496;11.324;2024-03-17T08:25:37;13.17;;;8.40;;
9294;SDS011;4686;44.496;11.324;2024-03-17T08:28:05;15.83;;;7.93;;
9294;SDS011;4686;44.496;11.324;2024-03-17T08:30:33;10.97;;;8.60;;
9294;SDS011;4686;44.496;11.324;2024-03-17T08:33:00;10.43;;;8.10;;
9294;SDS011;4686;44.496;11.324;2024-03-17T08:35:28;13.53;;;9.17;;
9294;SDS011;4686;44.496;11.324;2024-03-17T08:37:55;9.07;;;8.27;;
9294;SDS011;4686;44.496;11.324;2024-03-17T08:40:26;9.80;;;8.87;;
9294;SDS011;4686;44.496;11.324;2024-03-17T08:42:54;8.83;;;8.03;;
9294;SDS011;4686;44.496;11.324;2024-03-17T08:45:21;9.40;;;8.60;;
9294;SDS011;4686;44.496;11.324;2024-03-17T08:47:50;9.73;;;8.90;;
9294;SDS011;4686;44.496;11.324;2024-03-17T08:50:19;10.73;;;9.73;;
9294;SDS011;4686;44.496;11.324;2024-03-17T08:52:46;9.20;;;8.23;;
9294;SDS011;4686;44.496;11.324;2024-03-17T08:55:16;12.00;;;9.67;;
9294;SDS011;4686;44.496;11.324;2024-03-17T08:57:45;8.70;;;7.90;;
9294;SDS011;4686;44.496;11.324;2024-03-17T09:00:13;9.27;;;8.40;;
9294;SDS011;4686;44.496;11.324;2024-03-17T09:02:40;9.50;;;7.70;;
9294;SDS011;4686;44.496;11.324;2024-03-17T09:05:08;8.63;;;7.83;;
9294;SDS011;4686;44.496;11.324;2024-03-17T09:07:37;9.70;;;7.60;;
9294;SDS011;4686;44.496;11.324;2024-03-17T09:10:05;10.67;;;8.77;;
9294;SDS011;4686;44.496;11.324;2024-03-17T09:12:37;10.13;;;8.73;;
9294;SDS011;4686;44.496;11.324;2024-03-17T09:15:09;15.13;;;8.47;;
9294;SDS011;4686;44.496;11.324;2024-03-17T09:17:38;9.00;;;8.10;;
9294;SDS011;4686;44.496;11.324;2024-03-17T09:20:06;15.90;;;13.20;;
9294;SDS011;4686;44.496;11.324;2024-03-17T09:22:38;10.10;;;9.10;;
9294;SDS011;4686;44.496;11.324;2024-03-17T09:25:09;9.33;;;8.40;;
9294;SDS011;4686;44.496;11.324;2024-03-17T09:27:37;10.60;;;9.30;;
9294;SDS011;4686;44.496;11.324;2024-03-17T09:30:05;12.23;;;9.80;;
9294;SDS011;4686;44.496;11.324;2024-03-17T09:32:38;12.77;;;10.50;;
9294;SDS011;4686;44.496;11.324;2024-03-17T09:35:07;9.50;;;8.60;;
9294;SDS011;4686;44.496;11.324;2024-03-17T09:37:34;9.33;;;8.47;;
9294;SDS011;4686;44.496;11.324;2024-03-17T09:40:02;10.63;;;9.53;;
9294;SDS011;4686;44.496;11.324;2024-03-17T09:42:31;11.30;;;9.07;;
9294;SDS011;4686;44.496;11.324;2024-03-17T09:44:59;9.90;;;9.00;;
9294;SDS011;4686;44.496;11.324;2024-03-17T09:47:28;10.63;;;8.30;;
9294;SDS011;4686;44.496;11.324;2024-03-17T09:49:58;12.90;;;9.40;;
9294;SDS011;4686;44.496;11.324;2024-03-17T09:52:26;14.77;;;9.87;;
9294;SDS011;4686;44.496;11.324;2024-03-17T09:54:54;15.40;;;8.77;;
9294;SDS011;4686;44.496;11.324;2024-03-17T09:57:23;9.43;;;7.70;;
9294;SDS011;4686;44.496;11.324;2024-03-17T09:59:51;10.10;;;8.40;;
9294;SDS011;4686;44.496;11.324;2024-03-17T10:02:21;10.23;;;7.73;;
9294;SDS011;4686;44.496;11.324;2024-03-17T10:04:49;13.67;;;9.17;;
9294;SDS011;4686;44.496;11.324;2024-03-17T10:07:18;11.00;;;8.43;;
9294;SDS011;4686;44.496;11.324;2024-03-17T10:10:11;9.63;;;8.40;;
9294;SDS011;4686;44.496;11.324;2024-03-17T10:12:39;8.60;;;7.67;;
9294;SDS011;4686;44.496;11.324;2024-03-17T10:15:08;10.70;;;9.33;;
9294;SDS011;4686;44.496;11.324;2024-03-17T10:17:36;8.60;;;7.73;;
9294;SDS011;4686;44.496;11.324;2024-03-17T10:20:14;9.87;;;7.80;;
9294;SDS011;4686;44.496;11.324;2024-03-17T10:23:03;10.70;;;7.03;;
9294;SDS011;4686;44.496;11.324;2024-03-17T10:25:31;8.73;;;7.90;;
9294;SDS011;4686;44.496;11.324;2024-03-17T10:28:00;11.57;;;7.80;;
9294;SDS011;4686;44.496;11.324;2024-03-17T10:30:28;12.43;;;10.10;;
9294;SDS011;4686;44.496;11.324;2024-03-17T10:32:57;10.70;;;9.63;;
9294;SDS011;4686;44.496;11.324;2024-03-17T10:35:33;8.63;;;7.43;;
9294;SDS011;4686;44.496;11.324;2024-03-17T10:38:07;11.60;;;8.13;;
9294;SDS011;4686;44.496;11.324;2024-03-17T10:40:35;10.17;;;9.20;;
9294;SDS011;4686;44.496;11.324;2024-03-17T10:43:03;9.57;;;8.60;;
9294;SDS011;4686;44.496;11.324;2024-03-17T10:45:32;10.73;;;9.70;;
9294;SDS011;4686;44.496;11.324;2024-03-17T10:48:01;12.00;;;9.80;;
9294;SDS011;4686;44.496;11.324;2024-03-17T10:50:30;12.30;;;8.77;;
9294;SDS011;4686;44.496;11.324;2024-03-17T10:53:01;11.37;;;9.03;;
9294;SDS011;4686;44.496;11.324;2024-03-17T10:55:31;9.80;;;8.80;;
9294;SDS011;4686;44.496;11.324;2024-03-17T10:57:59;9.70;;;8.70;;
9294;SDS011;4686;44.496;11.324;2024-03-17T11:00:31;9.60;;;8.70;;
9294;SDS011;4686;44.496;11.324;2024-03-17T11:02:58;10.70;;;8.97;;
9294;SDS011;4686;44.496;11.324;2024-03-17T11:05:26;16.30;;;11.00;;
9294;SDS011;4686;44.496;11.324;2024-03-17T11:07:56;16.57;;;13.77;;
9294;SDS011;4686;44.496;11.324;2024-03-17T11:10:27;14.20;;;11.90;;
9294;SDS011;4686;44.496;11.324;2024-03-17T11:12:59;14.33;;;11.00;;
9294;SDS011;4686;44.496;11.324;2024-03-17T11:15:35;10.50;;;9.17;;
9294;SDS011;4686;44.496;11.324;2024-03-17T11:20:55;14.77;;;10.20;;
9294;SDS011;4686;44.496;11.324;2024-03-17T11:23:25;12.00;;;9.60;;
9294;SDS011;4686;44.496;11.324;2024-03-17T11:25:54;13.80;;;10.50;;
9294;SDS011;4686;44.496;11.324;2024-03-17T11:33:51;19.23;;;11.70;;
9294;SDS011;4686;44.496;11.324;2024-03-17T11:36:32;11.80;;;9.80;;
9294;SDS011;4686;44.496;11.324;2024-03-17T11:39:02;13.60;;;12.20;;
9294;SDS011;4686;44.496;11.324;2024-03-17T11:41:33;17.97;;;12.13;;
9294;SDS011;4686;44.496;11.324;2024-03-17T11:44:23;21.90;;;15.10;;
9294;SDS011;4686;44.496;11.324;2024-03-17T11:46:52;16.10;;;11.70;;
9294;SDS011;4686;44.496;11.324;2024-03-17T11:49:22;15.03;;;13.50;;
9294;SDS011;4686;44.496;11.324;2024-03-17T11:51:53;13.90;;;11.60;;
9294;SDS011;4686;44.496;11.324;2024-03-17T11:57:08;13.40;;;10.67;;
9294;SDS011;4686;44.496;11.324;2024-03-17T11:59:38;16.43;;;14.10;;
9294;SDS011;4686;44.496;11.324;2024-03-17T12:02:10;16.03;;;13.27;;
9294;SDS011;4686;44.496;11.324;2024-03-17T12:04:40;18.70;;;16.50;;
9294;SDS011;4686;44.496;11.324;2024-03-17T12:07:23;18.53;;;12.40;;
9294;SDS011;4686;44.496;11.324;2024-03-17T12:10:05;15.13;;;11.87;;
9294;SDS011;4686;44.496;11.324;2024-03-17T12:12:40;21.13;;;13.10;;
9294;SDS011;4686;44.496;11.324;2024-03-17T12:15:15;17.63;;;13.67;;
9294;SDS011;4686;44.496;11.324;2024-03-17T12:17:51;19.10;;;12.80;;
9294;SDS011;4686;44.496;11.324;2024-03-17T12:20:22;13.23;;;11.87;;
9294;SDS011;4686;44.496;11.324;2024-03-17T12:22:49;20.73;;;15.03;;
9294;SDS011;4686;44.496;11.324;2024-03-17T12:25:20;26.00;;;15.23;;
9294;SDS011;4686;44.496;11.324;2024-03-17T12:27:50;19.57;;;15.87;;
9294;SDS011;4686;44.496;11.324;2024-03-17T12:30:17;15.70;;;12.43;;
9294;SDS011;4686;44.496;11.324;2024-03-17T12:32:46;19.47;;;14.00;;
9294;SDS011;4686;44.496;11.324;2024-03-17T12:35:13;13.47;;;11.27;;
9294;SDS011;4686;44.496;11.324;2024-03-17T12:37:44;18.87;;;11.13;;
9294;SDS011;4686;44.496;11.324;2024-03-17T12:40:20;13.83;;;12.43;;
9294;SDS011;4686;44.496;11.324;2024-03-17T12:42:48;14.97;;;12.33;;
9294;SDS011;4686;44.496;11.324;2024-03-17T12:45:18;14.50;;;13.00;;
9294;SDS011;4686;44.496;11.324;2024-03-17T12:47:46;14.10;;;11.77;;
9294;SDS011;4686;44.496;11.324;2024-03-17T12:50:13;23.23;;;16.10;;
9294;SDS011;4686;44.496;11.324;2024-03-17T12:52:54;18.90;;;16.10;;
9294;SDS011;4686;44.496;11.324;2024-03-17T12:55:21;14.20;;;12.83;;
9294;SDS011;4686;44.496;11.324;2024-03-17T12:58:07;16.23;;;13.57;;
9294;SDS011;4686;44.496;11.324;2024-03-17T13:01:22;22.90;;;19.47;;
9294;SDS011;4686;44.496;11.324;2024-03-17T13:07:13;25.63;;;17.63;;
9294;SDS011;4686;44.496;11.324;2024-03-17T13:09:43;16.67;;;14.67;;
9294;SDS011;4686;44.496;11.324;2024-03-17T13:12:13;15.87;;;13.00;;
9294;SDS011;4686;44.496;11.324;2024-03-17T13:14:41;17.40;;;12.97;;
9294;SDS011;4686;44.496;11.324;2024-03-17T13:17:14;24.90;;;16.47;;
9294;SDS011;4686;44.496;11.324;2024-03-17T13:19:52;13.47;;;12.20;;
9294;SDS011;4686;44.496;11.324;2024-03-17T13:22:34;18.73;;;13.60;;
9294;SDS011;4686;44.496;11.324;2024-03-17T13:25:05;15.27;;;13.50;;
9294;SDS011;4686;44.496;11.324;2024-03-17T13:27:39;20.10;;;15.47;;
9294;SDS011;4686;44.496;11.324;2024-03-17T13:30:07;22.30;;;18.20;;
9294;SDS011;4686;44.496;11.324;2024-03-17T13:32:36;19.67;;;16.40;;
9294;SDS011;4686;44.496;11.324;2024-03-17T13:35:13;21.80;;;17.23;;
9294;SDS011;4686;44.496;11.324;2024-03-17T13:37:41;27.57;;;18.17;;
9294;SDS011;4686;44.496;11.324;2024-03-17T13:40:12;19.43;;;15.67;;
9294;SDS011;4686;44.496;11.324;2024-03-17T13:42:44;26.00;;;20.70;;
9294;SDS011;4686;44.496;11.324;2024-03-17T13:45:21;16.50;;;14.80;;
9294;SDS011;4686;44.496;11.324;2024-03-17T13:47:49;20.73;;;17.00;;
9294;SDS011;4686;44.496;11.324;2024-03-17T13:50:17;18.07;;;14.50;;
9294;SDS011;4686;44.496;11.324;2024-03-17T13:52:46;26.27;;;17.90;;
9294;SDS011;4686;44.496;11.324;2024-03-17T13:55:28;19.43;;;14.60;;
9294;SDS011;4686;44.496;11.324;2024-03-17T13:58:14;16.83;;;15.07;;
9294;SDS011;4686;44.496;11.324;2024-03-17T14:00:43;16.00;;;14.27;;
9294;SDS011;4686;44.496;11.324;2024-03-17T14:03:11;21.73;;;18.30;;
9294;SDS011;4686;44.496;11.324;2024-03-17T14:05:39;26.50;;;19.40;;
9294;SDS011;4686;44.496;11.324;2024-03-17T14:08:06;18.17;;;15.73;;
9294;SDS011;4686;44.496;11.324;2024-03-17T14:10:36;26.23;;;17.60;;
9294;SDS011;4686;44.496;11.324;2024-03-17T14:13:04;21.83;;;14.93;;
9294;SDS011;4686;44.496;11.324;2024-03-17T14:15:33;27.33;;;16.50;;
9294;SDS011;4686;44.496;11.324;2024-03-17T14:18:00;14.50;;;12.93;;
9294;SDS011;4686;44.496;11.324;2024-03-17T14:20:28;17.13;;;14.20;;
9294;SDS011;4686;44.496;11.324;2024-03-17T14:22:56;14.83;;;13.00;;
9294;SDS011;4686;44.496;11.324;2024-03-17T14:25:23;16.33;;;14.73;;
9294;SDS011;4686;44.496;11.324;2024-03-17T14:27:52;17.87;;;13.83;;
9294;SDS011;4686;44.496;11.324;2024-03-17T14:30:21;22.63;;;16.67;;
9294;SDS011;4686;44.496;11.324;2024-03-17T14:32:48;13.20;;;11.90;;
9294;SDS011;4686;44.496;11.324;2024-03-17T14:35:18;22.60;;;16.40;;
9294;SDS011;4686;44.496;11.324;2024-03-17T14:37:47;17.10;;;15.20;;
9294;SDS011;4686;44.496;11.324;2024-03-17T14:40:16;16.80;;;15.00;;
9294;SDS011;4686;44.496;11.324;2024-03-17T14:42:46;16.70;;;13.23;;
9294;SDS011;4686;44.496;11.324;2024-03-17T14:45:16;23.10;;;17.33;;
9294;SDS011;4686;44.496;11.324;2024-03-17T14:47:44;21.30;;;14.90;;
9294;SDS011;4686;44.496;11.324;2024-03-17T14:50:11;21.60;;;16.03;;
9294;SDS011;4686;44.496;11.324;2024-03-17T14:52:41;19.60;;;16.83;;
9294;SDS011;4686;44.496;11.324;2024-03-17T14:55:08;21.40;;;17.13;;
9294;SDS011;4686;44.496;11.324;2024-03-17T14:57:41;20.40;;;15.90;;
9294;SDS011;4686;44.496;11.324;2024-03-17T15:00:10;22.07;;;17.53;;
9294;SDS011;4686;44.496;11.324;2024-03-17T15:02:42;19.40;;;16.07;;
9294;SDS011;4686;44.496;11.324;2024-03-17T15:05:11;19.10;;;16.53;;
9294;SDS011;4686;44.496;11.324;2024-03-17T15:07:45;24.97;;;16.27;;
9294;SDS011;4686;44.496;11.324;2024-03-17T15:10:22;18.73;;;15.23;;
9294;SDS011;4686;44.496;11.324;2024-03-17T15:12:50;26.80;;;15.97;;
9294;SDS011;4686;44.496;11.324;2024-03-17T15:15:19;20.93;;;17.13;;